sensor_id;sensor_type;location;lat;lon;timestamp;P1;durP1;ratioP1;P2;durP2;ratioP2
23222;SDS011;11780;13.904;100.620;2023-05-07T00:00:53;22.27;;;19.98;;
23222;SDS011;11780;13.904;100.620;2023-05-07T00:03:24;21.83;;;19.52;;
23222;SDS011;11780;13.904;100.620;2023-05-07T00:05:56;23.48;;;19.02;;
23222;SDS011;11780;13.904;100.620;2023-05-07T00:08:27;28.25;;;24.48;;
23222;SDS011;11780;13.904;100.620;2023-05-07T00:10:58;33.20;;;23.67;;
23222;SDS011;11780;13.904;100.620;2023-05-07T00:13:28;30.60;;;21.95;;
23222;SDS011;11780;13.904;100.620;2023-05-07T00:16:05;25.75;;;21.92;;
23222;SDS011;11780;13.904;100.620;2023-05-07T00:21:05;24.08;;;20.58;;
23222;SDS011;11780;13.904;100.620;2023-05-07T00:23:36;23.73;;;20.47;;
23222;SDS011;11780;13.904;100.620;2023-05-07T00:26:07;23.55;;;20.40;;
23222;SDS011;11780;13.904;100.620;2023-05-07T00:28:39;21.63;;;19.15;;
23222;SDS011;11780;13.904;100.620;2023-05-07T00:31:10;21.65;;;19.35;;
23222;SDS011;11780;13.904;100.620;2023-05-07T00:33:43;23.25;;;19.85;;
23222;SDS011;11780;13.904;100.620;2023-05-07T00:36:14;22.50;;;20.23;;
23222;SDS011;11780;13.904;100.620;2023-05-07T00:38:44;25.40;;;21.33;;
23222;SDS011;11780;13.904;100.620;2023-05-07T00:41:15;22.97;;;20.37;;
23222;SDS011;11780;13.904;100.620;2023-05-07T00:43:45;22.27;;;19.55;;
23222;SDS011;11780;13.904;100.620;2023-05-07T00:46:16;21.23;;;19.03;;
23222;SDS011;11780;13.904;100.620;2023-05-07T00:48:47;21.45;;;18.85;;
23222;SDS011;11780;13.904;100.620;2023-05-07T00:51:18;20.60;;;18.52;;
23222;SDS011;11780;13.904;100.620;2023-05-07T00:53:48;19.98;;;18.13;;
23222;SDS011;11780;13.904;100.620;2023-05-07T00:56:20;20.67;;;18.67;;
23222;SDS011;11780;13.904;100.620;2023-05-07T00:58:52;20.65;;;18.55;;
23222;SDS011;11780;13.904;100.620;2023-05-07T01:01:22;20.98;;;18.77;;
23222;SDS011;11780;13.904;100.620;2023-05-07T01:03:53;23.87;;;18.80;;
23222;SDS011;11780;13.904;100.620;2023-05-07T01:06:25;21.02;;;18.95;;
23222;SDS011;11780;13.904;100.620;2023-05-07T01:08:58;20.42;;;17.42;;
23222;SDS011;11780;13.904;100.620;2023-05-07T01:11:30;19.73;;;17.73;;
23222;SDS011;11780;13.904;100.620;2023-05-07T01:16:31;18.73;;;16.83;;
23222;SDS011;11780;13.904;100.620;2023-05-07T01:19:03;20.13;;;17.95;;
23222;SDS011;11780;13.904;100.620;2023-05-07T01:21:34;21.65;;;19.40;;
23222;SDS011;11780;13.904;100.620;2023-05-07T01:24:07;22.80;;;20.33;;
23222;SDS011;11780;13.904;100.620;2023-05-07T01:26:38;24.83;;;19.80;;
23222;SDS011;11780;13.904;100.620;2023-05-07T01:29:10;19.30;;;17.33;;
23222;SDS011;11780;13.904;100.620;2023-05-07T01:31:41;18.50;;;16.70;;
23222;SDS011;11780;13.904;100.620;2023-05-07T01:34:13;19.42;;;17.33;;
23222;SDS011;11780;13.904;100.620;2023-05-07T01:36:46;19.35;;;17.35;;
23222;SDS011;11780;13.904;100.620;2023-05-07T01:39:18;22.88;;;17.20;;
23222;SDS011;11780;13.904;100.620;2023-05-07T01:41:48;19.90;;;17.80;;
23222;SDS011;11780;13.904;100.620;2023-05-07T01:44:19;20.83;;;17.60;;
23222;SDS011;11780;13.904;100.620;2023-05-07T01:46:52;18.05;;;16.23;;
23222;SDS011;11780;13.904;100.620;2023-05-07T01:51:52;16.15;;;14.55;;
23222;SDS011;11780;13.904;100.620;2023-05-07T01:54:26;17.40;;;15.60;;
23222;SDS011;11780;13.904;100.620;2023-05-07T01:56:58;18.17;;;15.50;;
23222;SDS011;11780;13.904;100.620;2023-05-07T02:01:59;19.42;;;16.00;;
23222;SDS011;11780;13.904;100.620;2023-05-07T02:04:31;23.80;;;16.35;;
23222;SDS011;11780;13.904;100.620;2023-05-07T03:11:14;14.00;;;12.60;;
23222;SDS011;11780;13.904;100.620;2023-05-07T03:13:46;16.70;;;13.85;;
23222;SDS011;11780;13.904;100.620;2023-05-07T03:16:19;14.40;;;12.98;;
23222;SDS011;11780;13.904;100.620;2023-05-07T03:18:50;15.97;;;13.10;;
23222;SDS011;11780;13.904;100.620;2023-05-07T03:21:22;16.85;;;13.57;;
23222;SDS011;11780;13.904;100.620;2023-05-07T03:26:23;14.75;;;13.27;;
23222;SDS011;11780;13.904;100.620;2023-05-07T03:28:54;15.17;;;13.53;;
23222;SDS011;11780;13.904;100.620;2023-05-07T03:33:55;16.20;;;14.32;;
23222;SDS011;11780;13.904;100.620;2023-05-07T03:36:26;15.88;;;13.82;;
23222;SDS011;11780;13.904;100.620;2023-05-07T03:38:57;15.68;;;14.18;;
23222;SDS011;11780;13.904;100.620;2023-05-07T03:41:35;14.57;;;13.07;;
23222;SDS011;11780;13.904;100.620;2023-05-07T03:44:05;15.30;;;13.57;;
23222;SDS011;11780;13.904;100.620;2023-05-07T03:46:36;14.02;;;12.63;;
23222;SDS011;11780;13.904;100.620;2023-05-07T03:49:09;15.20;;;13.27;;
23222;SDS011;11780;13.904;100.620;2023-05-07T03:51:40;15.10;;;13.13;;
23222;SDS011;11780;13.904;100.620;2023-05-07T03:54:10;15.13;;;13.13;;
23222;SDS011;11780;13.904;100.620;2023-05-07T03:56:44;14.65;;;13.30;;
23222;SDS011;11780;13.904;100.620;2023-05-07T03:59:14;14.07;;;12.73;;
23222;SDS011;11780;13.904;100.620;2023-05-07T04:01:46;16.73;;;13.55;;
23222;SDS011;11780;13.904;100.620;2023-05-07T04:04:21;14.38;;;12.95;;
23222;SDS011;11780;13.904;100.620;2023-05-07T04:06:51;14.75;;;12.85;;
23222;SDS011;11780;13.904;100.620;2023-05-07T04:09:22;14.02;;;12.65;;
23222;SDS011;11780;13.904;100.620;2023-05-07T04:11:55;13.65;;;12.10;;
23222;SDS011;11780;13.904;100.620;2023-05-07T04:14:27;16.50;;;11.20;;
23222;SDS011;11780;13.904;100.620;2023-05-07T04:19:29;12.43;;;11.23;;
23222;SDS011;11780;13.904;100.620;2023-05-07T04:22:00;12.43;;;11.18;;
23222;SDS011;11780;13.904;100.620;2023-05-07T04:24:32;12.15;;;10.95;;
23222;SDS011;11780;13.904;100.620;2023-05-07T04:27:06;15.38;;;11.80;;
23222;SDS011;11780;13.904;100.620;2023-05-07T04:29:36;13.02;;;11.73;;
23222;SDS011;11780;13.904;100.620;2023-05-07T04:32:11;13.82;;;12.50;;
23222;SDS011;11780;13.904;100.620;2023-05-07T04:34:42;14.23;;;12.73;;
23222;SDS011;11780;13.904;100.620;2023-05-07T04:37:12;13.40;;;12.00;;
23222;SDS011;11780;13.904;100.620;2023-05-07T04:39:43;13.23;;;11.83;;
23222;SDS011;11780;13.904;100.620;2023-05-07T04:42:17;12.38;;;11.27;;
23222;SDS011;11780;13.904;100.620;2023-05-07T04:44:52;12.90;;;11.60;;
23222;SDS011;11780;13.904;100.620;2023-05-07T04:47:24;14.70;;;11.95;;
23222;SDS011;11780;13.904;100.620;2023-05-07T04:49:54;15.50;;;12.83;;
23222;SDS011;11780;13.904;100.620;2023-05-07T04:52:25;16.42;;;12.70;;
23222;SDS011;11780;13.904;100.620;2023-05-07T04:54:56;15.13;;;13.55;;
23222;SDS011;11780;13.904;100.620;2023-05-07T04:57:34;15.15;;;13.57;;
23222;SDS011;11780;13.904;100.620;2023-05-07T05:00:05;14.50;;;13.10;;
23222;SDS011;11780;13.904;100.620;2023-05-07T05:02:39;13.98;;;12.60;;
23222;SDS011;11780;13.904;100.620;2023-05-07T05:05:13;13.35;;;12.00;;
23222;SDS011;11780;13.904;100.620;2023-05-07T05:10:14;13.20;;;11.95;;
23222;SDS011;11780;13.904;100.620;2023-05-07T05:12:49;13.98;;;12.27;;
23222;SDS011;11780;13.904;100.620;2023-05-07T05:15:21;14.35;;;12.82;;
23222;SDS011;11780;13.904;100.620;2023-05-07T05:17:51;17.40;;;12.57;;
23222;SDS011;11780;13.904;100.620;2023-05-07T05:20:22;14.82;;;12.10;;
23222;SDS011;11780;13.904;100.620;2023-05-07T05:22:52;12.90;;;11.60;;
23222;SDS011;11780;13.904;100.620;2023-05-07T05:25:23;14.67;;;12.77;;
23222;SDS011;11780;13.904;100.620;2023-05-07T05:27:53;15.43;;;13.30;;
23222;SDS011;11780;13.904;100.620;2023-05-07T05:30:24;13.65;;;12.27;;
23222;SDS011;11780;13.904;100.620;2023-05-07T05:32:55;13.40;;;12.13;;
23222;SDS011;11780;13.904;100.620;2023-05-07T05:35:26;14.23;;;12.77;;
23222;SDS011;11780;13.904;100.620;2023-05-07T05:37:58;13.60;;;12.20;;
23222;SDS011;11780;13.904;100.620;2023-05-07T05:40:31;12.90;;;11.68;;
23222;SDS011;11780;13.904;100.620;2023-05-07T05:43:02;14.57;;;12.75;;
23222;SDS011;11780;13.904;100.620;2023-05-07T05:45:34;12.52;;;11.32;;
23222;SDS011;11780;13.904;100.620;2023-05-07T05:48:05;16.23;;;12.18;;
23222;SDS011;11780;13.904;100.620;2023-05-07T05:50:37;13.25;;;11.95;;
23222;SDS011;11780;13.904;100.620;2023-05-07T05:53:08;15.75;;;12.70;;
23222;SDS011;11780;13.904;100.620;2023-05-07T05:55:39;13.95;;;12.63;;
23222;SDS011;11780;13.904;100.620;2023-05-07T05:58:10;14.63;;;11.55;;
23222;SDS011;11780;13.904;100.620;2023-05-07T06:00:47;12.95;;;11.57;;
23222;SDS011;11780;13.904;100.620;2023-05-07T06:03:19;13.75;;;11.88;;
23222;SDS011;11780;13.904;100.620;2023-05-07T06:05:52;12.98;;;11.68;;
23222;SDS011;11780;13.904;100.620;2023-05-07T06:08:22;12.75;;;11.65;;
23222;SDS011;11780;13.904;100.620;2023-05-07T06:10:53;13.70;;;12.07;;
23222;SDS011;11780;13.904;100.620;2023-05-07T06:13:23;13.43;;;12.20;;
23222;SDS011;11780;13.904;100.620;2023-05-07T06:15:54;12.30;;;11.20;;
23222;SDS011;11780;13.904;100.620;2023-05-07T06:18:25;11.80;;;10.63;;
23222;SDS011;11780;13.904;100.620;2023-05-07T06:20:55;12.00;;;10.87;;
23222;SDS011;11780;13.904;100.620;2023-05-07T06:23:29;10.90;;;9.65;;
23222;SDS011;11780;13.904;100.620;2023-05-07T06:26:01;12.27;;;10.73;;
23222;SDS011;11780;13.904;100.620;2023-05-07T06:28:37;12.90;;;11.52;;
23222;SDS011;11780;13.904;100.620;2023-05-07T06:31:12;12.85;;;11.70;;
23222;SDS011;11780;13.904;100.620;2023-05-07T06:33:50;12.63;;;11.43;;
23222;SDS011;11780;13.904;100.620;2023-05-07T06:36:23;13.32;;;12.02;;
23222;SDS011;11780;13.904;100.620;2023-05-07T06:38:57;15.20;;;11.50;;
23222;SDS011;11780;13.904;100.620;2023-05-07T06:41:27;13.23;;;11.27;;
23222;SDS011;11780;13.904;100.620;2023-05-07T06:44:05;14.15;;;12.85;;
23222;SDS011;11780;13.904;100.620;2023-05-07T06:46:46;13.93;;;12.52;;
23222;SDS011;11780;13.904;100.620;2023-05-07T06:49:16;13.60;;;12.40;;
23222;SDS011;11780;13.904;100.620;2023-05-07T06:51:48;15.35;;;12.82;;
23222;SDS011;11780;13.904;100.620;2023-05-07T06:54:20;15.57;;;12.33;;
23222;SDS011;11780;13.904;100.620;2023-05-07T06:56:51;16.50;;;12.80;;
23222;SDS011;11780;13.904;100.620;2023-05-07T06:59:24;14.55;;;13.05;;
23222;SDS011;11780;13.904;100.620;2023-05-07T07:01:54;19.47;;;13.30;;
23222;SDS011;11780;13.904;100.620;2023-05-07T07:04:25;15.65;;;13.43;;
23222;SDS011;11780;13.904;100.620;2023-05-07T07:07:03;14.50;;;13.00;;
23222;SDS011;11780;13.904;100.620;2023-05-07T07:09:34;15.13;;;12.38;;
23222;SDS011;11780;13.904;100.620;2023-05-07T07:12:06;14.48;;;12.60;;
23222;SDS011;11780;13.904;100.620;2023-05-07T07:14:39;14.82;;;12.23;;
23222;SDS011;11780;13.904;100.620;2023-05-07T07:17:09;16.63;;;13.03;;
23222;SDS011;11780;13.904;100.620;2023-05-07T07:19:39;15.23;;;12.90;;
23222;SDS011;11780;13.904;100.620;2023-05-07T07:22:10;13.93;;;12.40;;
23222;SDS011;11780;13.904;100.620;2023-05-07T07:24:42;13.20;;;12.00;;
23222;SDS011;11780;13.904;100.620;2023-05-07T07:27:15;18.33;;;12.88;;
23222;SDS011;11780;13.904;100.620;2023-05-07T07:29:46;13.37;;;12.17;;
23222;SDS011;11780;13.904;100.620;2023-05-07T07:32:18;14.25;;;12.75;;
23222;SDS011;11780;13.904;100.620;2023-05-07T07:34:49;13.05;;;11.75;;
23222;SDS011;11780;13.904;100.620;2023-05-07T07:37:20;14.93;;;13.33;;
23222;SDS011;11780;13.904;100.620;2023-05-07T07:39:50;14.60;;;12.77;;
23222;SDS011;11780;13.904;100.620;2023-05-07T07:42:21;14.57;;;13.25;;
23222;SDS011;11780;13.904;100.620;2023-05-07T07:44:52;13.25;;;11.93;;
23222;SDS011;11780;13.904;100.620;2023-05-07T07:47:24;14.30;;;11.70;;
23222;SDS011;11780;13.904;100.620;2023-05-07T07:49:55;13.52;;;11.55;;
23222;SDS011;11780;13.904;100.620;2023-05-07T07:52:25;12.63;;;10.87;;
23222;SDS011;11780;13.904;100.620;2023-05-07T07:54:55;12.37;;;11.30;;
23222;SDS011;11780;13.904;100.620;2023-05-07T07:57:26;12.90;;;11.63;;
23222;SDS011;11780;13.904;100.620;2023-05-07T07:59:56;12.05;;;10.85;;
23222;SDS011;11780;13.904;100.620;2023-05-07T08:02:31;14.95;;;12.55;;
23222;SDS011;11780;13.904;100.620;2023-05-07T08:05:01;15.35;;;11.40;;
23222;SDS011;11780;13.904;100.620;2023-05-07T08:07:32;13.63;;;11.40;;
23222;SDS011;11780;13.904;100.620;2023-05-07T08:10:02;15.33;;;11.57;;
23222;SDS011;11780;13.904;100.620;2023-05-07T08:12:33;14.15;;;11.68;;
23222;SDS011;11780;13.904;100.620;2023-05-07T08:15:04;12.27;;;11.07;;
23222;SDS011;11780;13.904;100.620;2023-05-07T08:20:06;13.15;;;11.75;;
23222;SDS011;11780;13.904;100.620;2023-05-07T08:22:38;13.20;;;11.80;;
23222;SDS011;11780;13.904;100.620;2023-05-07T08:25:09;13.00;;;11.65;;
23222;SDS011;11780;13.904;100.620;2023-05-07T08:27:40;12.70;;;11.40;;
23222;SDS011;11780;13.904;100.620;2023-05-07T08:30:12;11.68;;;10.45;;
23222;SDS011;11780;13.904;100.620;2023-05-07T08:32:43;12.20;;;10.85;;
23222;SDS011;11780;13.904;100.620;2023-05-07T08:35:14;12.57;;;11.00;;
23222;SDS011;11780;13.904;100.620;2023-05-07T08:37:45;11.48;;;10.35;;
23222;SDS011;11780;13.904;100.620;2023-05-07T08:40:17;12.10;;;10.88;;
23222;SDS011;11780;13.904;100.620;2023-05-07T08:42:49;11.52;;;10.10;;
23222;SDS011;11780;13.904;100.620;2023-05-07T08:45:21;11.90;;;10.70;;
23222;SDS011;11780;13.904;100.620;2023-05-07T08:47:55;12.13;;;10.50;;
23222;SDS011;11780;13.904;100.620;2023-05-07T08:50:35;10.68;;;9.75;;
23222;SDS011;11780;13.904;100.620;2023-05-07T08:53:06;11.20;;;10.00;;
23222;SDS011;11780;13.904;100.620;2023-05-07T08:55:37;12.52;;;11.23;;
23222;SDS011;11780;13.904;100.620;2023-05-07T08:58:08;13.60;;;10.93;;
23222;SDS011;11780;13.904;100.620;2023-05-07T09:00:39;14.45;;;11.10;;
23222;SDS011;11780;13.904;100.620;2023-05-07T09:03:11;12.00;;;10.50;;
23222;SDS011;11780;13.904;100.620;2023-05-07T09:05:48;11.75;;;10.57;;
23222;SDS011;11780;13.904;100.620;2023-05-07T09:08:23;14.65;;;10.93;;
23222;SDS011;11780;13.904;100.620;2023-05-07T09:10:59;12.93;;;11.50;;
23222;SDS011;11780;13.904;100.620;2023-05-07T09:13:30;12.55;;;11.25;;
23222;SDS011;11780;13.904;100.620;2023-05-07T09:16:11;12.45;;;11.40;;
23222;SDS011;11780;13.904;100.620;2023-05-07T09:18:45;14.88;;;13.20;;
23222;SDS011;11780;13.904;100.620;2023-05-07T09:21:17;14.65;;;13.25;;
23222;SDS011;11780;13.904;100.620;2023-05-07T09:23:51;16.35;;;14.65;;
23222;SDS011;11780;13.904;100.620;2023-05-07T09:26:33;16.73;;;15.02;;
23222;SDS011;11780;13.904;100.620;2023-05-07T09:29:05;18.63;;;15.02;;
23222;SDS011;11780;13.904;100.620;2023-05-07T09:31:38;18.08;;;16.17;;
23222;SDS011;11780;13.904;100.620;2023-05-07T09:34:12;17.02;;;15.32;;
23222;SDS011;11780;13.904;100.620;2023-05-07T09:36:45;17.38;;;15.65;;
23222;SDS011;11780;13.904;100.620;2023-05-07T09:39:16;17.45;;;15.63;;
23222;SDS011;11780;13.904;100.620;2023-05-07T09:41:47;18.80;;;16.77;;
23222;SDS011;11780;13.904;100.620;2023-05-07T09:44:25;17.92;;;15.55;;
23222;SDS011;11780;13.904;100.620;2023-05-07T09:46:56;17.15;;;15.65;;
23222;SDS011;11780;13.904;100.620;2023-05-07T09:49:38;18.10;;;16.35;;
23222;SDS011;11780;13.904;100.620;2023-05-07T09:52:11;17.02;;;15.23;;
23222;SDS011;11780;13.904;100.620;2023-05-07T09:54:48;17.33;;;15.57;;
23222;SDS011;11780;13.904;100.620;2023-05-07T09:57:25;19.05;;;16.90;;
23222;SDS011;11780;13.904;100.620;2023-05-07T10:00:01;17.65;;;15.80;;
23222;SDS011;11780;13.904;100.620;2023-05-07T10:02:48;17.55;;;15.43;;
23222;SDS011;11780;13.904;100.620;2023-05-07T10:05:29;17.40;;;15.80;;
23222;SDS011;11780;13.904;100.620;2023-05-07T10:08:01;17.63;;;15.43;;
23222;SDS011;11780;13.904;100.620;2023-05-07T10:10:35;18.00;;;16.15;;
23222;SDS011;11780;13.904;100.620;2023-05-07T10:13:09;18.48;;;16.67;;
23222;SDS011;11780;13.904;100.620;2023-05-07T10:15:45;17.88;;;16.23;;
23222;SDS011;11780;13.904;100.620;2023-05-07T10:18:19;17.23;;;15.60;;
23222;SDS011;11780;13.904;100.620;2023-05-07T10:21:07;18.42;;;16.45;;
23222;SDS011;11780;13.904;100.620;2023-05-07T10:23:41;20.33;;;17.48;;
23222;SDS011;11780;13.904;100.620;2023-05-07T10:26:17;18.63;;;16.77;;
23222;SDS011;11780;13.904;100.620;2023-05-07T10:28:53;19.67;;;17.55;;
23222;SDS011;11780;13.904;100.620;2023-05-07T10:34:09;18.52;;;16.83;;
23222;SDS011;11780;13.904;100.620;2023-05-07T10:36:44;18.80;;;16.15;;
23222;SDS011;11780;13.904;100.620;2023-05-07T10:39:15;19.33;;;17.27;;
23222;SDS011;11780;13.904;100.620;2023-05-07T10:41:46;17.88;;;16.08;;
23222;SDS011;11780;13.904;100.620;2023-05-07T10:44:26;18.23;;;16.33;;
23222;SDS011;11780;13.904;100.620;2023-05-07T10:52:22;18.33;;;16.40;;
23222;SDS011;11780;13.904;100.620;2023-05-07T10:55:21;17.83;;;15.98;;
23222;SDS011;11780;13.904;100.620;2023-05-07T11:01:05;18.77;;;15.43;;
23222;SDS011;11780;13.904;100.620;2023-05-07T11:09:55;18.15;;;15.60;;
23222;SDS011;11780;13.904;100.620;2023-05-07T11:12:51;19.45;;;15.68;;
23222;SDS011;11780;13.904;100.620;2023-05-07T11:15:46;19.75;;;15.80;;
23222;SDS011;11780;13.904;100.620;2023-05-07T11:18:53;16.85;;;15.05;;
23222;SDS011;11780;13.904;100.620;2023-05-07T11:21:35;16.63;;;14.88;;
23222;SDS011;11780;13.904;100.620;2023-05-07T11:24:39;17.67;;;14.77;;
23222;SDS011;11780;13.904;100.620;2023-05-07T11:27:13;18.35;;;14.63;;
23222;SDS011;11780;13.904;100.620;2023-05-07T11:29:46;20.95;;;15.05;;
23222;SDS011;11780;13.904;100.620;2023-05-07T11:32:26;17.38;;;14.85;;
23222;SDS011;11780;13.904;100.620;2023-05-07T11:35:00;28.75;;;14.65;;
23222;SDS011;11780;13.904;100.620;2023-05-07T11:37:31;28.63;;;14.32;;
23222;SDS011;11780;13.904;100.620;2023-05-07T11:42:38;27.42;;;13.80;;
23222;SDS011;11780;13.904;100.620;2023-05-07T11:45:08;22.98;;;14.20;;
23222;SDS011;11780;13.904;100.620;2023-05-07T11:50:11;20.92;;;14.82;;
23222;SDS011;11780;13.904;100.620;2023-05-07T11:52:49;20.23;;;14.47;;
23222;SDS011;11780;13.904;100.620;2023-05-07T11:55:21;17.25;;;14.13;;
23222;SDS011;11780;13.904;100.620;2023-05-07T11:57:55;17.63;;;13.50;;
23222;SDS011;11780;13.904;100.620;2023-05-07T12:00:31;16.45;;;14.15;;
23222;SDS011;11780;13.904;100.620;2023-05-07T12:03:04;15.73;;;13.93;;
23222;SDS011;11780;13.904;100.620;2023-05-07T12:05:35;16.30;;;14.65;;
23222;SDS011;11780;13.904;100.620;2023-05-07T12:08:06;18.83;;;13.65;;
23222;SDS011;11780;13.904;100.620;2023-05-07T12:10:40;15.07;;;13.48;;
23222;SDS011;11780;13.904;100.620;2023-05-07T12:13:17;28.85;;;19.60;;
23222;SDS011;11780;13.904;100.620;2023-05-07T12:15:52;25.60;;;19.08;;
23222;SDS011;11780;13.904;100.620;2023-05-07T12:18:23;27.13;;;18.88;;
23222;SDS011;11780;13.904;100.620;2023-05-07T12:20:54;27.27;;;19.88;;
23222;SDS011;11780;13.904;100.620;2023-05-07T12:23:25;29.73;;;19.63;;
23222;SDS011;11780;13.904;100.620;2023-05-07T12:25:55;36.73;;;19.47;;
23222;SDS011;11780;13.904;100.620;2023-05-07T12:28:27;34.63;;;20.80;;
23222;SDS011;11780;13.904;100.620;2023-05-07T12:30:57;28.58;;;20.27;;
23222;SDS011;11780;13.904;100.620;2023-05-07T12:33:28;26.83;;;19.50;;
23222;SDS011;11780;13.904;100.620;2023-05-07T12:36:02;28.35;;;21.90;;
23222;SDS011;11780;13.904;100.620;2023-05-07T12:38:36;34.33;;;24.58;;
23222;SDS011;11780;13.904;100.620;2023-05-07T12:41:09;30.15;;;26.35;;
23222;SDS011;11780;13.904;100.620;2023-05-07T12:43:45;33.15;;;25.77;;
23222;SDS011;11780;13.904;100.620;2023-05-07T12:46:16;32.13;;;27.77;;
23222;SDS011;11780;13.904;100.620;2023-05-07T12:48:47;30.88;;;27.55;;
23222;SDS011;11780;13.904;100.620;2023-05-07T12:51:18;32.13;;;27.77;;
23222;SDS011;11780;13.904;100.620;2023-05-07T12:53:48;36.13;;;28.57;;
23222;SDS011;11780;13.904;100.620;2023-05-07T12:56:19;40.97;;;29.83;;
23222;SDS011;11780;13.904;100.620;2023-05-07T12:58:49;32.57;;;28.37;;
23222;SDS011;11780;13.904;100.620;2023-05-07T13:01:19;33.33;;;24.43;;
23222;SDS011;11780;13.904;100.620;2023-05-07T13:03:51;28.92;;;23.88;;
23222;SDS011;11780;13.904;100.620;2023-05-07T13:06:21;27.27;;;23.25;;
23222;SDS011;11780;13.904;100.620;2023-05-07T13:08:53;29.52;;;23.02;;
23222;SDS011;11780;13.904;100.620;2023-05-07T13:11:24;24.58;;;20.35;;
23222;SDS011;11780;13.904;100.620;2023-05-07T13:13:54;22.13;;;19.70;;
23222;SDS011;11780;13.904;100.620;2023-05-07T13:16:24;22.00;;;18.48;;
23222;SDS011;11780;13.904;100.620;2023-05-07T13:18:54;21.67;;;17.87;;
23222;SDS011;11780;13.904;100.620;2023-05-07T13:21:25;21.97;;;17.10;;
23222;SDS011;11780;13.904;100.620;2023-05-07T13:23:56;20.38;;;17.75;;
23222;SDS011;11780;13.904;100.620;2023-05-07T13:26:27;22.77;;;17.48;;
23222;SDS011;11780;13.904;100.620;2023-05-07T13:29:00;18.83;;;15.75;;
23222;SDS011;11780;13.904;100.620;2023-05-07T13:31:30;18.17;;;16.23;;
23222;SDS011;11780;13.904;100.620;2023-05-07T13:36:31;18.65;;;16.15;;
23222;SDS011;11780;13.904;100.620;2023-05-07T13:39:05;18.90;;;16.88;;
23222;SDS011;11780;13.904;100.620;2023-05-07T13:41:35;18.05;;;16.25;;
23222;SDS011;11780;13.904;100.620;2023-05-07T13:44:06;18.40;;;16.50;;
23222;SDS011;11780;13.904;100.620;2023-05-07T13:46:36;18.33;;;16.43;;
23222;SDS011;11780;13.904;100.620;2023-05-07T13:49:06;18.95;;;16.95;;
23222;SDS011;11780;13.904;100.620;2023-05-07T13:51:37;19.37;;;17.50;;
23222;SDS011;11780;13.904;100.620;2023-05-07T13:54:07;18.50;;;16.65;;
23222;SDS011;11780;13.904;100.620;2023-05-07T13:56:38;18.70;;;16.90;;
23222;SDS011;11780;13.904;100.620;2023-05-07T13:59:08;19.95;;;15.90;;
23222;SDS011;11780;13.904;100.620;2023-05-07T14:01:39;17.80;;;15.83;;
23222;SDS011;11780;13.904;100.620;2023-05-07T14:04:09;18.83;;;15.03;;
23222;SDS011;11780;13.904;100.620;2023-05-07T14:06:40;16.98;;;15.05;;
23222;SDS011;11780;13.904;100.620;2023-05-07T14:09:11;16.88;;;15.38;;
23222;SDS011;11780;13.904;100.620;2023-05-07T14:11:42;17.85;;;16.13;;
23222;SDS011;11780;13.904;100.620;2023-05-07T14:14:13;18.03;;;16.33;;
23222;SDS011;11780;13.904;100.620;2023-05-07T14:16:43;18.17;;;16.23;;
23222;SDS011;11780;13.904;100.620;2023-05-07T14:19:16;17.48;;;15.82;;
23222;SDS011;11780;13.904;100.620;2023-05-07T14:21:46;17.43;;;15.63;;
23222;SDS011;11780;13.904;100.620;2023-05-07T14:27:00;20.00;;;15.65;;
23222;SDS011;11780;13.904;100.620;2023-05-07T14:29:31;17.73;;;15.52;;
23222;SDS011;11780;13.904;100.620;2023-05-07T14:32:02;20.40;;;16.40;;
23222;SDS011;11780;13.904;100.620;2023-05-07T14:37:02;20.02;;;15.95;;
23222;SDS011;11780;13.904;100.620;2023-05-07T14:39:33;20.67;;;15.50;;
23222;SDS011;11780;13.904;100.620;2023-05-07T14:42:03;17.50;;;15.53;;
23222;SDS011;11780;13.904;100.620;2023-05-07T14:44:35;21.33;;;16.67;;
23222;SDS011;11780;13.904;100.620;2023-05-07T14:47:06;19.17;;;16.37;;
23222;SDS011;11780;13.904;100.620;2023-05-07T14:49:37;18.85;;;16.70;;
23222;SDS011;11780;13.904;100.620;2023-05-07T14:52:08;17.35;;;15.23;;
23222;SDS011;11780;13.904;100.620;2023-05-07T14:54:39;21.90;;;16.58;;
23222;SDS011;11780;13.904;100.620;2023-05-07T14:57:10;18.07;;;16.03;;
23222;SDS011;11780;13.904;100.620;2023-05-07T14:59:42;18.17;;;16.23;;
23222;SDS011;11780;13.904;100.620;2023-05-07T15:02:13;18.23;;;16.17;;
23222;SDS011;11780;13.904;100.620;2023-05-07T15:04:47;17.67;;;15.88;;
23222;SDS011;11780;13.904;100.620;2023-05-07T15:07:17;17.73;;;16.13;;
23222;SDS011;11780;13.904;100.620;2023-05-07T15:09:48;18.10;;;16.27;;
23222;SDS011;11780;13.904;100.620;2023-05-07T15:12:19;19.05;;;17.13;;
23222;SDS011;11780;13.904;100.620;2023-05-07T15:14:50;18.70;;;16.55;;
23222;SDS011;11780;13.904;100.620;2023-05-07T15:17:20;17.50;;;15.70;;
23222;SDS011;11780;13.904;100.620;2023-05-07T15:22:08;19.13;;;17.13;;
23222;SDS011;11780;13.904;100.620;2023-05-07T15:24:38;20.07;;;17.70;;
23222;SDS011;11780;13.904;100.620;2023-05-07T15:27:10;18.58;;;16.67;;
23222;SDS011;11780;13.904;100.620;2023-05-07T15:29:41;19.77;;;16.15;;
23222;SDS011;11780;13.904;100.620;2023-05-07T15:32:12;18.15;;;16.25;;
23222;SDS011;11780;13.904;100.620;2023-05-07T15:34:42;18.13;;;16.27;;
23222;SDS011;11780;13.904;100.620;2023-05-07T15:37:17;18.73;;;16.02;;
23222;SDS011;11780;13.904;100.620;2023-05-07T15:39:48;17.83;;;16.07;;
23222;SDS011;11780;13.904;100.620;2023-05-07T15:42:18;17.50;;;15.83;;
23222;SDS011;11780;13.904;100.620;2023-05-07T15:47:18;17.70;;;15.88;;
23222;SDS011;11780;13.904;100.620;2023-05-07T15:49:49;17.27;;;15.70;;
23222;SDS011;11780;13.904;100.620;2023-05-07T15:52:20;18.50;;;16.52;;
23222;SDS011;11780;13.904;100.620;2023-05-07T15:54:50;17.20;;;15.65;;
23222;SDS011;11780;13.904;100.620;2023-05-07T15:57:21;18.08;;;16.48;;
23222;SDS011;11780;13.904;100.620;2023-05-07T16:02:21;17.50;;;15.38;;
23222;SDS011;11780;13.904;100.620;2023-05-07T16:04:52;17.63;;;15.90;;
23222;SDS011;11780;13.904;100.620;2023-05-07T16:07:25;18.50;;;16.58;;
23222;SDS011;11780;13.904;100.620;2023-05-07T16:09:55;17.95;;;16.15;;
23222;SDS011;11780;13.904;100.620;2023-05-07T16:12:25;17.60;;;15.68;;
23222;SDS011;11780;13.904;100.620;2023-05-07T16:14:55;18.13;;;16.25;;
23222;SDS011;11780;13.904;100.620;2023-05-07T16:17:25;17.77;;;15.77;;
23222;SDS011;11780;13.904;100.620;2023-05-07T16:19:56;16.92;;;15.23;;
23222;SDS011;11780;13.904;100.620;2023-05-07T16:22:30;18.98;;;17.00;;
23222;SDS011;11780;13.904;100.620;2023-05-07T16:27:33;18.25;;;16.15;;
23222;SDS011;11780;13.904;100.620;2023-05-07T16:30:03;18.65;;;16.42;;
23222;SDS011;11780;13.904;100.620;2023-05-07T16:32:33;17.00;;;15.25;;